Time;durP1;ratioP1;P1;durP2;ratioP2;P2;SDS_P1;SDS_P2;PMS_P1;PMS_P2;Temp;Humidity;BMP_temperature;BMP_pressure;BME280_temperature;BME280_humidity;BME280_pressure;Samples;Min_cycle;Max_cycle;Signal;HPM_P1;HPM_P2
2023/03/05 00:02:09;;;;;;;14.17;8.40;;;;;0.50;94201.00;;;;7393093;19;20157;-74
2023/03/05 00:04:44;;;;;;;16.83;9.13;;;;;0.40;94190.00;;;;7391364;19;20160;-73
2023/03/05 00:07:30;;;;;;;15.23;8.50;;;;;0.60;94189.00;;;;7390791;19;20584;-73
2023/03/05 00:10:06;;;;;;;20.80;9.07;;;;;0.50;94185.00;;;;7393660;19;20466;-73
2023/03/05 00:12:40;;;;;;;24.57;8.73;;;;;0.60;94192.00;;;;7392157;19;20474;-73
2023/03/05 00:15:08;;;;;;;17.70;8.67;;;;;0.60;94190.00;;;;7391743;19;20560;-73
2023/03/05 00:17:42;;;;;;;17.00;8.53;;;;;0.60;94191.00;;;;7390944;19;20136;-73
2023/03/05 00:20:10;;;;;;;17.83;8.43;;;;;0.60;94187.00;;;;7392229;19;20169;-72
2023/03/05 00:22:44;;;;;;;17.10;8.63;;;;;0.80;94187.00;;;;7390559;19;20686;-73
2023/03/05 00:25:12;;;;;;;14.37;8.17;;;;;0.90;94179.00;;;;7392661;19;20588;-73
2023/03/05 00:27:46;;;;;;;15.87;7.50;;;;;0.80;94182.00;;;;7392038;19;20149;-72
2023/03/05 00:30:14;;;;;;;15.53;7.40;;;;;0.70;94183.00;;;;7395396;19;20623;-73
2023/03/05 00:32:48;;;;;;;19.37;9.00;;;;;0.70;94189.00;;;;7398986;19;20128;-73
2023/03/05 00:35:16;;;;;;;19.23;10.07;;;;;0.70;94173.00;;;;7394670;19;20258;-73
2023/03/05 00:37:50;;;;;;;16.73;8.50;;;;;0.70;94177.00;;;;7399852;19;20573;-72
2023/03/05 00:40:24;;;;;;;14.73;8.60;;;;;0.50;94173.00;;;;7399176;19;20141;-73
2023/03/05 00:42:58;;;;;;;16.50;8.93;;;;;0.60;94183.00;;;;7400614;19;20645;-73
2023/03/05 00:45:25;;;;;;;21.63;9.13;;;;;0.50;94200.00;;;;7398346;19;20153;-74
2023/03/05 00:47:59;;;;;;;14.77;7.90;;;;;0.60;94170.00;;;;7398118;19;20140;-73
2023/03/05 00:50:27;;;;;;;18.87;8.87;;;;;0.70;94170.00;;;;7399506;19;20128;-73
2023/03/05 00:53:01;;;;;;;20.00;9.50;;;;;0.70;94170.00;;;;7399778;19;20188;-73
2023/03/05 00:55:36;;;;;;;18.73;9.40;;;;;0.40;94166.00;;;;7395544;19;20145;-73
2023/03/05 00:58:10;;;;;;;17.00;9.23;;;;;0.50;94164.00;;;;7399872;19;20653;-73
2023/03/05 01:00:37;;;;;;;21.67;9.57;;;;;0.50;94152.00;;;;7395323;19;20157;-72
2023/03/05 01:03:05;;;;;;;19.43;10.17;;;;;0.50;94168.00;;;;7397981;19;20635;-73
2023/03/05 01:05:39;;;;;;;21.23;10.27;;;;;0.50;94158.00;;;;7397783;19;20147;-73
2023/03/05 01:08:14;;;;;;;20.50;9.40;;;;;0.60;94154.00;;;;7398294;19;20152;-73
2023/03/05 01:10:48;;;;;;;22.23;9.60;;;;;0.50;94093.00;;;;7397851;19;20144;-74
2023/03/05 01:13:22;;;;;;;19.73;9.07;;;;;0.40;94158.00;;;;7396721;19;20136;-74
2023/03/05 01:15:50;;;;;;;21.53;9.97;;;;;0.40;94145.00;;;;7392860;19;20151;-73
2023/03/05 01:18:24;;;;;;;20.07;10.13;;;;;0.60;94136.00;;;;7399728;19;20591;-75
2023/03/05 01:20:58;;;;;;;23.33;10.53;;;;;0.50;94136.00;;;;7399499;19;20137;-73
2023/03/05 01:23:25;;;;;;;18.73;9.63;;;;;0.30;94135.00;;;;7389119;19;20156;-73
2023/03/05 01:26:00;;;;;;;21.10;9.83;;;;;0.20;94144.00;;;;7393136;19;20124;-73
2023/03/05 01:28:34;;;;;;;20.70;9.93;;;;;0.20;94136.00;;;;7394709;19;20124;-73
2023/03/05 01:31:10;;;;;;;22.97;9.60;;;;;0.30;94136.00;;;;7397123;19;20506;-73
2023/03/05 01:33:38;;;;;;;24.57;9.80;;;;;0.30;94133.00;;;;7398132;19;20708;-73
2023/03/05 01:36:15;;;;;;;25.40;9.87;;;;;0.10;94138.00;;;;7394379;19;20456;-73
2023/03/05 01:38:45;;;;;;;24.20;9.37;;;;;0.30;94128.00;;;;7395119;19;20152;-73
2023/03/05 01:41:20;;;;;;;27.93;10.77;;;;;0.30;94124.00;;;;7394603;19;20651;-73
2023/03/05 01:43:56;;;;;;;22.43;10.53;;;;;0.20;94129.00;;;;7397166;19;20128;-73
2023/03/05 01:46:29;;;;;;;26.03;10.67;;;;;0.20;94130.00;;;;7396026;19;20157;-73
2023/03/05 01:49:07;;;;;;;22.07;10.03;;;;;0.10;94126.00;;;;7396052;19;20152;-73
2023/03/05 01:51:39;;;;;;;26.60;9.53;;;;;0.10;94121.00;;;;7396091;19;20144;-73
2023/03/05 01:54:16;;;;;;;23.20;10.07;;;;;0.10;94114.00;;;;7396855;19;20153;-73
2023/03/05 01:56:45;;;;;;;22.27;11.13;;;;;0.30;94110.00;;;;7395760;19;20150;-73
2023/03/05 01:59:14;;;;;;;23.50;10.90;;;;;0.20;94109.00;;;;7397555;19;20135;-72
2023/03/05 02:01:57;;;;;;;26.00;10.27;;;;;0.00;94107.00;;;;7391997;19;20144;-78
2023/03/05 02:04:55;;;;;;;21.50;9.50;;;;;0.20;94102.00;;;;7398360;19;20125;-76
2023/03/05 02:07:30;;;;;;;23.33;10.23;;;;;-0.10;94093.00;;;;7396343;19;20167;-79
2023/03/05 02:09:57;;;;;;;24.43;10.50;;;;;0.20;94099.00;;;;7398165;19;20144;-78
2023/03/05 02:12:32;;;;;;;22.13;9.80;;;;;0.00;94099.00;;;;7397922;19;20133;-76
2023/03/05 02:15:00;;;;;;;25.13;11.90;;;;;0.10;94098.00;;;;7399011;19;20605;-77
2023/03/05 02:17:34;;;;;;;24.87;11.50;;;;;0.20;94086.00;;;;7396318;19;20133;-77
2023/03/05 02:20:12;;;;;;;21.60;9.57;;;;;0.30;94093.00;;;;7400113;19;20124;-77
2023/03/05 02:22:46;;;;;;;27.63;11.07;;;;;0.20;94087.00;;;;7398440;19;20575;-80
2023/03/05 02:25:15;;;;;;;21.83;9.93;;;;;0.10;94095.00;;;;7397922;19;20157;-77
2023/03/05 02:28:11;;;;;;;20.73;9.37;;;;;0.40;94087.00;;;;7395801;19;20134;-76
2023/03/05 02:30:38;;;;;;;23.87;10.43;;;;;0.20;94084.00;;;;7398347;19;20144;-77
2023/03/05 02:33:18;;;;;;;24.93;10.70;;;;;0.20;94081.00;;;;7399687;19;20612;-76
2023/03/05 02:35:46;;;;;;;23.70;10.23;;;;;0.30;94081.00;;;;7394197;19;20160;-75
2023/03/05 02:38:20;;;;;;;23.03;10.13;;;;;0.30;94075.00;;;;7396906;19;20152;-76
2023/03/05 02:40:48;;;;;;;22.17;10.50;;;;;0.30;94066.00;;;;7398175;19;20149;-78
2023/03/05 02:43:22;;;;;;;26.40;10.47;;;;;0.30;94073.00;;;;7396848;19;20163;-78
2023/03/05 02:45:49;;;;;;;24.70;10.97;;;;;0.40;94075.00;;;;7397383;19;20125;-77
2023/03/05 02:48:23;;;;;;;26.13;10.23;;;;;0.40;94068.00;;;;7395514;19;20184;-76
2023/03/05 02:50:51;;;;;;;25.03;10.97;;;;;0.30;94073.00;;;;7399132;19;20129;-77
2023/03/05 02:53:25;;;;;;;22.93;9.67;;;;;0.30;94064.00;;;;7393069;19;20117;-75
2023/03/05 02:55:53;;;;;;;23.47;10.97;;;;;0.30;94062.00;;;;7393058;19;20125;-77
2023/03/05 02:58:27;;;;;;;23.10;9.77;;;;;0.20;94064.00;;;;7397823;19;20144;-75
2023/03/05 03:01:01;;;;;;;20.33;9.57;;;;;0.20;94060.00;;;;7398794;19;20481;-76
2023/03/05 03:03:43;;;;;;;22.40;10.37;;;;;0.20;94054.00;;;;7393573;19;20197;-76
2023/03/05 03:06:10;;;;;;;24.67;10.90;;;;;0.10;94060.00;;;;7394496;19;20160;-76
2023/03/05 03:08:44;;;;;;;23.80;9.73;;;;;0.10;94049.00;;;;7396665;19;20160;-76
2023/03/05 03:11:13;;;;;;;26.17;10.60;;;;;0.20;94048.00;;;;7394718;19;20125;-78
2023/03/05 03:13:47;;;;;;;21.70;9.80;;;;;0.20;94048.00;;;;7394112;19;20152;-80
2023/03/05 03:16:15;;;;;;;27.47;10.80;;;;;0.20;94045.00;;;;7390505;19;20155;-76
2023/03/05 03:18:49;;;;;;;24.60;10.67;;;;;0.20;94041.00;;;;7393478;19;20203;-78
2023/03/05 03:21:24;;;;;;;26.43;10.33;;;;;0.30;94033.00;;;;7395203;19;20133;-78
2023/03/05 03:23:58;;;;;;;24.10;10.23;;;;;0.20;94038.00;;;;7395421;19;20152;-77
2023/03/05 03:26:32;;;;;;;25.87;10.10;;;;;0.00;94031.00;;;;7393136;19;20164;-76
2023/03/05 03:28:59;;;;;;;26.20;9.97;;;;;0.10;94027.00;;;;7395039;19;20486;-78
2023/03/05 03:31:33;;;;;;;26.67;9.50;;;;;0.10;94024.00;;;;7397193;19;20213;-77
2023/03/05 03:34:07;;;;;;;20.37;10.13;;;;;0.00;94037.00;;;;7395066;19;20165;-77
2023/03/05 03:36:46;;;;;;;26.77;10.73;;;;;0.10;94025.00;;;;7395130;19;20452;-75
2023/03/05 03:39:21;;;;;;;25.50;10.43;;;;;0.00;94033.00;;;;7396664;19;20666;-77
2023/03/05 03:41:55;;;;;;;19.70;9.10;;;;;0.30;94016.00;;;;7394836;19;20610;-77
2023/03/05 03:44:22;;;;;;;23.47;10.13;;;;;0.40;94013.00;;;;7396523;19;20163;-77
2023/03/05 03:46:57;;;;;;;25.43;9.70;;;;;0.30;94021.00;;;;7393079;19;20173;-78
2023/03/05 03:49:32;;;;;;;23.40;10.53;;;;;0.20;94011.00;;;;7395659;19;20129;-76
2023/03/05 03:52:06;;;;;;;27.43;11.03;;;;;0.20;94017.00;;;;7396051;19;20145;-78
2023/03/05 03:54:34;;;;;;;27.60;9.60;;;;;0.20;94019.00;;;;7394023;19;20160;-76
2023/03/05 03:57:08;;;;;;;25.07;10.97;;;;;0.30;94022.00;;;;7392495;19;20173;-77
2023/03/05 03:59:36;;;;;;;25.63;10.50;;;;;0.20;94013.00;;;;7395717;19;20189;-78
2023/03/05 04:02:10;;;;;;;25.17;11.27;;;;;0.20;94019.00;;;;7392995;19;20201;-78
2023/03/05 04:04:50;;;;;;;25.33;11.00;;;;;0.10;94018.00;;;;7399674;19;20124;-78
2023/03/05 04:07:25;;;;;;;20.57;9.23;;;;;0.20;94016.00;;;;7400869;19;20125;-79
2023/03/05 04:10:00;;;;;;;24.70;10.90;;;;;0.10;94020.00;;;;7400480;19;20463;-78
2023/03/05 04:12:35;;;;;;;19.17;9.27;;;;;0.10;94019.00;;;;7400369;19;20157;-78
2023/03/05 04:15:03;;;;;;;26.00;10.60;;;;;0.30;94006.00;;;;7401015;19;20424;-79
2023/03/05 04:17:37;;;;;;;24.63;10.17;;;;;0.20;94000.00;;;;7398806;19;20179;-79
2023/03/05 04:20:09;;;;;;;27.43;11.13;;;;;0.10;94003.00;;;;7401703;19;20158;-78
2023/03/05 04:22:37;;;;;;;23.30;9.97;;;;;0.10;94004.00;;;;7399324;19;20125;-77
2023/03/05 04:25:12;;;;;;;19.93;10.27;;;;;0.10;94005.00;;;;7402688;19;20128;-78
2023/03/05 04:27:47;;;;;;;24.17;9.57;;;;;0.20;93998.00;;;;7399553;19;20160;-78
2023/03/05 04:30:21;;;;;;;23.07;9.93;;;;;0.00;93998.00;;;;7400031;19;20137;-77
2023/03/05 04:32:48;;;;;;;27.40;10.47;;;;;0.00;93989.00;;;;7400150;19;20704;-77
2023/03/05 04:35:22;;;;;;;24.40;11.50;;;;;0.00;94001.00;;;;7400697;19;20132;-78
2023/03/05 04:37:56;;;;;;;25.10;10.60;;;;;-0.10;93987.00;;;;7400045;19;20642;-79
2023/03/05 04:40:30;;;;;;;20.97;10.57;;;;;0.00;93987.00;;;;7400113;19;20536;-77
2023/03/05 04:42:57;;;;;;;33.83;11.07;;;;;0.00;93981.00;;;;7400224;19;20476;-77
2023/03/05 04:45:38;;;;;;;26.10;11.20;;;;;0.00;93984.00;;;;7398583;19;20603;-77
2023/03/05 04:48:12;;;;;;;29.53;11.20;;;;;0.00;93984.00;;;;7400468;19;20648;-78
2023/03/05 04:50:40;;;;;;;29.83;10.40;;;;;0.00;93987.00;;;;7400292;19;20150;-76
2023/03/05 04:53:14;;;;;;;23.00;10.80;;;;;0.20;93978.00;;;;7402506;19;20131;-78
2023/03/05 04:55:52;;;;;;;20.03;10.23;;;;;0.00;93981.00;;;;7396727;19;20144;-77
2023/03/05 04:58:27;;;;;;;28.93;11.83;;;;;-0.10;93972.00;;;;7399416;19;20121;-76
2023/03/05 05:00:59;;;;;;;25.27;11.23;;;;;-0.10;93981.00;;;;7399590;19;20152;-78
2023/03/05 05:03:40;;;;;;;26.77;11.70;;;;;-0.10;93982.00;;;;7399376;19;20184;-78
2023/03/05 05:06:07;;;;;;;24.90;10.37;;;;;-0.30;93976.00;;;;7397642;19;20618;-80
2023/03/05 05:08:42;;;;;;;29.20;11.47;;;;;-0.20;93976.00;;;;7399130;19;20137;-79
2023/03/05 05:11:13;;;;;;;24.10;10.70;;;;;-0.10;93979.00;;;;7398403;19;20163;-76
2023/03/05 05:13:47;;;;;;;23.60;10.70;;;;;-0.20;93975.00;;;;7399291;19;20544;-77
2023/03/05 05:16:15;;;;;;;25.10;10.97;;;;;-0.10;93966.00;;;;7393821;19;20157;-78
2023/03/05 05:18:49;;;;;;;27.90;11.77;;;;;-0.20;93968.00;;;;7397291;19;20140;-77
2023/03/05 05:21:17;;;;;;;28.47;11.03;;;;;-0.30;93963.00;;;;7401740;19;20513;-77
2023/03/05 05:23:51;;;;;;;25.10;11.27;;;;;-0.20;93971.00;;;;7399718;19;20223;-76
2023/03/05 05:26:26;;;;;;;22.87;11.47;;;;;-0.20;93966.00;;;;7398474;19;20145;-78
2023/03/05 05:29:00;;;;;;;26.23;11.03;;;;;0.00;93977.00;;;;7399213;19;20144;-76
2023/03/05 05:31:34;;;;;;;25.17;11.17;;;;;0.20;93973.00;;;;7399376;19;20598;-77
2023/03/05 05:34:01;;;;;;;29.23;11.33;;;;;-0.20;93974.00;;;;7400263;19;20132;-77
2023/03/05 05:36:36;;;;;;;29.27;10.87;;;;;-0.20;93973.00;;;;7396469;19;20491;-79
2023/03/05 05:39:10;;;;;;;26.30;11.57;;;;;-0.20;93972.00;;;;7398853;19;20633;-78
2023/03/05 05:41:50;;;;;;;24.27;11.37;;;;;-0.10;93969.00;;;;7399610;19;20582;-79
2023/03/05 05:44:17;;;;;;;26.37;11.37;;;;;-0.10;93966.00;;;;7399762;19;20189;-77
2023/03/05 05:46:51;;;;;;;25.60;12.00;;;;;-0.20;93978.00;;;;7397880;19;20547;-80
2023/03/05 05:49:18;;;;;;;27.97;12.37;;;;;-0.20;93973.00;;;;7398790;19;20137;-77
2023/03/05 05:51:52;;;;;;;25.23;11.97;;;;;-0.20;93966.00;;;;7400854;19;20132;-78
2023/03/05 05:54:22;;;;;;;28.90;11.67;;;;;-0.20;93973.00;;;;7401066;19;20514;-78
2023/03/05 05:56:56;;;;;;;26.63;11.87;;;;;-0.30;93967.00;;;;7395315;19;20162;-77
2023/03/05 05:59:30;;;;;;;28.17;12.03;;;;;-0.30;93974.00;;;;7398752;19;20458;-77
2023/03/05 06:02:13;;;;;;;21.63;11.30;;;;;-0.30;93954.00;;;;7399006;19;20149;-78
2023/03/05 06:04:47;;;;;;;28.70;12.20;;;;;-0.20;93969.00;;;;7399119;19;20641;-78
2023/03/05 06:07:24;;;;;;;23.43;11.97;;;;;-0.20;93968.00;;;;7395828;19;20132;-77
2023/03/05 06:09:51;;;;;;;30.77;12.73;;;;;-0.20;93974.00;;;;7398959;19;20542;-78
2023/03/05 06:12:26;;;;;;;28.90;12.60;;;;;-0.20;93967.00;;;;7400215;19;20217;-77
2023/03/05 06:14:53;;;;;;;24.23;10.70;;;;;-0.30;93962.00;;;;7399982;19;20129;-76
2023/03/05 06:17:21;;;;;;;26.70;11.80;;;;;-0.20;93960.00;;;;7396482;19;20153;-78
2023/03/05 06:19:57;;;;;;;21.33;11.57;;;;;-0.20;93970.00;;;;7397449;19;20575;-77
2023/03/05 06:22:34;;;;;;;27.77;11.80;;;;;-0.20;93964.00;;;;7397473;19;20145;-77
2023/03/05 06:25:09;;;;;;;26.63;11.97;;;;;-0.20;93965.00;;;;7397914;19;20156;-77
2023/03/05 06:27:43;;;;;;;20.63;10.93;;;;;0.00;93965.00;;;;7395674;19;20136;-77
2023/03/05 06:30:11;;;;;;;20.40;10.80;;;;;0.00;93962.00;;;;7398125;19;20603;-75
2023/03/05 06:32:39;;;;;;;25.33;11.27;;;;;0.00;93957.00;;;;7394902;19;20140;-78
2023/03/05 06:35:13;;;;;;;28.13;12.17;;;;;0.10;93958.00;;;;7396643;19;20161;-78
2023/03/05 06:37:40;;;;;;;22.53;11.77;;;;;0.10;93952.00;;;;7394899;19;20221;-76
2023/03/05 06:40:14;;;;;;;23.10;11.77;;;;;0.00;93950.00;;;;7397795;19;20141;-77
2023/03/05 06:42:48;;;;;;;29.60;13.07;;;;;0.10;93950.00;;;;7398282;19;20141;-77
2023/03/05 06:45:22;;;;;;;24.90;12.17;;;;;0.10;93941.00;;;;7396052;19;20132;-77
2023/03/05 06:47:50;;;;;;;26.80;11.50;;;;;0.10;93950.00;;;;7397725;19;20143;-76
2023/03/05 06:50:24;;;;;;;25.03;11.70;;;;;0.30;93944.00;;;;7396986;19;20121;-76
2023/03/05 06:52:54;;;;;;;22.53;10.90;;;;;0.30;93944.00;;;;7396286;19;20149;-77
2023/03/05 06:55:28;;;;;;;24.87;11.63;;;;;0.50;93946.00;;;;7393616;19;20166;-79
2023/03/05 06:58:03;;;;;;;25.10;11.67;;;;;0.30;93943.00;;;;7395470;19;20129;-77
2023/03/05 07:00:31;;;;;;;24.03;11.63;;;;;0.40;93939.00;;;;7396227;19;20153;-77
2023/03/05 07:03:12;;;;;;;24.53;12.20;;;;;0.40;93943.00;;;;7395513;19;20246;-77
2023/03/05 07:05:46;;;;;;;22.47;12.03;;;;;0.50;93938.00;;;;7394619;19;20137;-78
2023/03/05 07:08:20;;;;;;;25.97;11.60;;;;;0.60;93939.00;;;;7386478;19;20587;-77
2023/03/05 07:10:54;;;;;;;22.67;11.50;;;;;0.50;93940.00;;;;7396416;19;20157;-75
2023/03/05 07:13:49;;;;;;;26.07;11.27;;;;;0.60;93943.00;;;;7396247;19;20159;-78
2023/03/05 07:16:26;;;;;;;24.93;11.53;;;;;0.60;93937.00;;;;7392955;19;20167;-77
2023/03/05 07:18:55;;;;;;;28.17;11.67;;;;;0.70;93928.00;;;;7396399;19;20586;-76
2023/03/05 07:21:33;;;;;;;20.87;11.00;;;;;1.00;93934.00;;;;7396709;19;20136;-76
2023/03/05 07:24:02;;;;;;;24.23;10.93;;;;;0.80;93929.00;;;;7396718;19;20155;-78
2023/03/05 07:26:36;;;;;;;22.77;10.73;;;;;0.80;93934.00;;;;7396975;19;20595;-76
2023/03/05 07:29:04;;;;;;;18.97;10.83;;;;;0.80;93927.00;;;;7397528;19;20152;-77
2023/03/05 07:31:38;;;;;;;20.60;10.53;;;;;0.90;93934.00;;;;7395509;19;20165;-77
2023/03/05 07:34:06;;;;;;;19.20;10.47;;;;;0.80;93929.00;;;;7397070;19;20156;-78
2023/03/05 07:36:41;;;;;;;18.03;9.97;;;;;0.80;93935.00;;;;7393323;19;20176;-77
2023/03/05 07:39:10;;;;;;;19.70;10.07;;;;;1.10;93936.00;;;;7396547;19;20129;-78
2023/03/05 07:41:46;;;;;;;22.70;11.23;;;;;0.90;93932.00;;;;7396683;19;20152;-78
2023/03/05 07:44:14;;;;;;;22.70;10.27;;;;;0.80;93926.00;;;;7394077;19;20144;-77
2023/03/05 07:46:48;;;;;;;17.47;9.70;;;;;1.00;93916.00;;;;7393082;19;20156;-76
2023/03/05 07:49:16;;;;;;;18.83;9.93;;;;;0.90;93927.00;;;;7394659;19;20152;-78
2023/03/05 07:51:50;;;;;;;21.20;10.47;;;;;1.00;93922.00;;;;7393381;19;20606;-76
2023/03/05 07:54:19;;;;;;;22.37;10.40;;;;;1.30;93924.00;;;;7394102;19;20198;-77
2023/03/05 07:56:54;;;;;;;22.53;10.43;;;;;1.30;93920.00;;;;7392132;19;20124;-78
2023/03/05 07:59:28;;;;;;;20.20;9.50;;;;;1.20;93922.00;;;;7393382;19;20149;-77
2023/03/05 08:02:02;;;;;;;21.43;10.13;;;;;1.40;93923.00;;;;7396938;19;20156;-77
2023/03/05 08:04:37;;;;;;;22.73;10.13;;;;;1.50;93924.00;;;;7394277;19;20212;-78
2023/03/05 08:07:14;;;;;;;21.50;9.63;;;;;1.70;93926.00;;;;7391614;19;20152;-79
2023/03/05 08:09:49;;;;;;;19.67;10.03;;;;;1.90;93914.00;;;;7395708;19;20125;-77
2023/03/05 08:12:23;;;;;;;19.33;9.67;;;;;1.60;93915.00;;;;7394891;19;20152;-77
2023/03/05 08:14:51;;;;;;;20.50;9.57;;;;;1.50;93913.00;;;;7394527;19;20502;-76
2023/03/05 08:17:25;;;;;;;21.23;10.03;;;;;2.00;93914.00;;;;7390087;19;20610;-76
2023/03/05 08:19:56;;;;;;;21.53;9.43;;;;;2.00;93909.00;;;;7393534;19;20136;-78
2023/03/05 08:22:34;;;;;;;17.97;9.37;;;;;2.20;93927.00;;;;7393884;19;20622;-77
2023/03/05 08:25:08;;;;;;;21.13;10.30;;;;;2.50;93911.00;;;;7396003;19;20136;-77
2023/03/05 08:27:45;;;;;;;19.90;9.80;;;;;2.60;93908.00;;;;7391910;19;20129;-78
2023/03/05 08:30:18;;;;;;;18.53;10.00;;;;;2.40;93906.00;;;;7394201;19;20137;-78
2023/03/05 08:32:53;;;;;;;19.43;10.13;;;;;2.70;93905.00;;;;7394075;19;20541;-78
2023/03/05 08:35:21;;;;;;;17.73;9.07;;;;;2.60;93900.00;;;;7394184;19;20489;-78
2023/03/05 08:37:55;;;;;;;20.33;9.77;;;;;2.90;93891.00;;;;7393927;19;20150;-77
2023/03/05 08:40:23;;;;;;;18.47;9.77;;;;;2.90;93901.00;;;;7390770;19;20241;-79
2023/03/05 08:42:58;;;;;;;16.37;9.60;;;;;2.50;93896.00;;;;7394298;19;20170;-78
2023/03/05 08:45:32;;;;;;;16.23;9.30;;;;;2.60;93898.00;;;;7392103;19;20128;-79
2023/03/05 08:48:08;;;;;;;20.03;9.63;;;;;3.20;93891.00;;;;7393711;19;20622;-77
2023/03/05 08:50:42;;;;;;;15.73;9.43;;;;;3.30;93891.00;;;;7393195;19;20218;-78
2023/03/05 08:53:16;;;;;;;21.47;9.97;;;;;3.40;93889.00;;;;7400004;19;20490;-78
2023/03/05 08:55:57;;;;;;;18.30;10.10;;;;;3.80;93890.00;;;;7397815;19;20149;-77
2023/03/05 08:58:32;;;;;;;17.70;9.93;;;;;3.50;93889.00;;;;7399997;19;20224;-77
2023/03/05 09:01:06;;;;;;;20.27;11.20;;;;;3.30;93895.00;;;;7400120;19;20159;-78
2023/03/05 09:03:47;;;;;;;17.43;10.93;;;;;3.20;93891.00;;;;7397428;19;20180;-78
2023/03/05 09:06:28;;;;;;;18.60;10.27;;;;;3.10;93886.00;;;;7393246;19;20133;-76
2023/03/05 09:08:55;;;;;;;19.10;9.93;;;;;3.30;93891.00;;;;7395729;19;20513;-77
2023/03/05 09:11:29;;;;;;;21.23;10.83;;;;;3.20;93893.00;;;;7397904;19;20144;-76
2023/03/05 09:13:57;;;;;;;20.73;11.37;;;;;3.00;93892.00;;;;7397958;19;20129;-81
2023/03/05 09:16:32;;;;;;;21.43;11.10;;;;;3.10;93889.00;;;;7393871;19;20140;-76
2023/03/05 09:19:00;;;;;;;20.90;11.67;;;;;3.30;93891.00;;;;7392386;19;20220;-78
2023/03/05 09:21:35;;;;;;;21.30;11.67;;;;;2.90;93892.00;;;;7394733;19;20182;-76
2023/03/05 09:24:03;;;;;;;19.20;11.57;;;;;3.10;93880.00;;;;7397208;19;20157;-78
2023/03/05 09:26:37;;;;;;;19.70;11.40;;;;;3.30;93879.00;;;;7395879;19;20152;-76
2023/03/05 09:29:11;;;;;;;19.27;12.03;;;;;3.20;93865.00;;;;7394904;19;20167;-76
2023/03/05 09:31:48;;;;;;;17.53;11.57;;;;;3.60;93874.00;;;;7395854;19;20181;-77
2023/03/05 09:34:23;;;;;;;20.37;10.93;;;;;4.20;93871.00;;;;7396682;19;20156;-77
2023/03/05 09:36:51;;;;;;;17.20;10.60;;;;;4.40;93864.00;;;;7394265;19;20137;-79
2023/03/05 09:39:26;;;;;;;20.90;11.70;;;;;4.00;93869.00;;;;7395461;19;20161;-77
2023/03/05 09:42:22;;;;;;;18.70;11.80;;;;;4.00;93865.00;;;;7393769;19;20140;-77
2023/03/05 09:45:12;;;;;;;19.87;10.87;;;;;4.10;93867.00;;;;7396134;19;20129;-77
2023/03/05 09:48:16;;;;;;;20.00;11.23;;;;;4.20;93863.00;;;;7395452;19;20548;-78
2023/03/05 09:51:01;;;;;;;18.23;10.93;;;;;4.70;93853.00;;;;7395392;19;20149;-77
2023/03/05 09:53:35;;;;;;;16.03;10.47;;;;;4.70;93846.00;;;;7394563;19;20199;-78
2023/03/05 09:56:26;;;;;;;20.07;10.93;;;;;4.40;93847.00;;;;7395087;19;20176;-75
2023/03/05 09:59:15;;;;;;;17.17;9.73;;;;;4.40;93854.00;;;;7397136;19;20136;-77
2023/03/05 10:01:51;;;;;;;17.40;11.07;;;;;3.90;93850.00;;;;7391605;19;20164;-77
2023/03/05 10:04:50;;;;;;;17.70;10.80;;;;;4.00;93851.00;;;;7393535;19;20199;-78
2023/03/05 10:07:32;;;;;;;19.20;11.17;;;;;3.20;93852.00;;;;7393926;19;20615;-77
2023/03/05 10:10:10;;;;;;;19.03;10.73;;;;;3.00;93851.00;;;;7393447;19;20137;-76
2023/03/05 10:12:50;;;;;;;16.70;10.83;;;;;3.50;93855.00;;;;7397128;19;20137;-77
2023/03/05 10:15:50;;;;;;;18.40;10.70;;;;;3.10;93848.00;;;;7393204;19;20156;-78
2023/03/05 10:18:45;;;;;;;16.27;9.47;;;;;3.50;93847.00;;;;7393091;19;20152;-77
2023/03/05 10:21:48;;;;;;;15.10;9.27;;;;;3.60;93847.00;;;;7394024;19;20662;-76
2023/03/05 10:24:48;;;;;;;16.63;8.73;;;;;3.10;93847.00;;;;7393211;19;20159;-76
2023/03/05 10:27:20;;;;;;;16.50;8.90;;;;;3.50;93841.00;;;;7384913;19;20148;-76
2023/03/05 10:30:26;;;;;;;13.53;8.87;;;;;3.70;93843.00;;;;7392432;19;20155;-77
2023/03/05 10:33:31;;;;;;;15.30;8.60;;;;;3.40;93843.00;;;;7387801;19;20226;-78
2023/03/05 10:36:28;;;;;;;14.67;8.53;;;;;3.50;93836.00;;;;7386184;19;20144;-77
2023/03/05 10:39:15;;;;;;;16.53;8.33;;;;;3.20;93842.00;;;;7389655;19;20144;-77
2023/03/05 10:42:07;;;;;;;15.70;8.60;;;;;2.90;93837.00;;;;7390965;19;20650;-78
2023/03/05 10:44:45;;;;;;;20.53;10.70;;;;;2.20;93845.00;;;;7391355;19;20137;-77
2023/03/05 10:47:38;;;;;;;23.77;11.27;;;;;2.20;93840.00;;;;7389106;19;20143;-75
2023/03/05 10:50:19;;;;;;;20.90;10.20;;;;;2.20;93841.00;;;;7390464;19;20681;-76
2023/03/05 10:53:29;;;;;;;23.90;11.57;;;;;2.20;93838.00;;;;7391102;19;20155;-76
2023/03/05 10:56:05;;;;;;;21.07;12.27;;;;;1.90;93841.00;;;;7388073;19;20828;-77
2023/03/05 10:58:32;;;;;;;27.17;13.07;;;;;2.00;93836.00;;;;7391351;19;20579;-81
2023/03/05 11:01:27;;;;;;;28.03;14.60;;;;;1.80;93826.00;;;;7389072;19;20500;-77
2023/03/05 11:03:57;;;;;;;28.37;14.43;;;;;1.70;93832.00;;;;7389089;19;20165;-78
2023/03/05 11:06:46;;;;;;;33.80;15.57;;;;;1.40;93832.00;;;;7387107;19;20153;-78
2023/03/05 11:09:31;;;;;;;30.67;15.50;;;;;1.50;93829.00;;;;7389317;19;20153;-76
2023/03/05 11:12:20;;;;;;;29.73;16.47;;;;;1.60;93828.00;;;;7391579;19;20483;-75
2023/03/05 11:15:09;;;;;;;32.20;16.80;;;;;1.90;93823.00;;;;7388232;19;20136;-76
2023/03/05 11:17:47;;;;;;;35.43;18.27;;;;;2.10;93813.00;;;;7386632;19;20145;-77
2023/03/05 11:20:33;;;;;;;30.47;17.53;;;;;1.60;93810.00;;;;7388283;19;20485;-77
2023/03/05 11:23:13;;;;;;;32.20;17.30;;;;;1.80;93814.00;;;;7389946;19;20129;-75
2023/03/05 11:26:15;;;;;;;29.50;15.93;;;;;1.80;93795.00;;;;7388174;19;20148;-77
2023/03/05 11:28:59;;;;;;;33.17;20.93;;;;;2.30;93801.00;;;;7389536;19;20686;-76
2023/03/05 11:31:29;;;;;;;34.80;20.43;;;;;2.10;93797.00;;;;7388440;19;20515;-78
2023/03/05 11:34:07;;;;;;;33.70;16.97;;;;;2.20;93804.00;;;;7385703;19;20166;-76
2023/03/05 11:36:43;;;;;;;27.90;15.87;;;;;2.30;93798.00;;;;7386474;19;20129;-77
2023/03/05 11:39:19;;;;;;;29.10;15.40;;;;;2.20;93794.00;;;;7390479;19;20219;-77
2023/03/05 11:42:00;;;;;;;26.30;14.43;;;;;1.60;93787.00;;;;7389183;19;20757;-78
2023/03/05 11:44:50;;;;;;;28.23;15.00;;;;;1.80;93790.00;;;;7389029;19;20164;-77
2023/03/05 11:47:38;;;;;;;29.30;14.83;;;;;2.10;93786.00;;;;7389023;19;20143;-76
2023/03/05 11:50:23;;;;;;;25.33;13.43;;;;;1.80;93788.00;;;;7388053;19;20163;-76
2023/03/05 11:53:00;;;;;;;29.43;16.53;;;;;2.30;93785.00;;;;7389560;19;20224;-76
2023/03/05 11:55:44;;;;;;;26.53;14.83;;;;;2.50;93780.00;;;;7388099;19;20145;-77
2023/03/05 11:58:54;;;;;;;24.80;15.43;;;;;2.60;93768.00;;;;7386747;19;20488;-79
2023/03/05 12:01:33;;;;;;;28.97;14.17;;;;;2.90;93772.00;;;;7385141;19;20156;-78
2023/03/05 12:04:15;;;;;;;31.33;15.07;;;;;3.00;93768.00;;;;7385940;19;20189;-76
2023/03/05 12:07:04;;;;;;;27.17;14.73;;;;;2.70;93758.00;;;;7385856;19;20153;-76
2023/03/05 12:09:42;;;;;;;26.03;14.40;;;;;2.40;93769.00;;;;7389888;19;20575;-78
2023/03/05 12:12:39;;;;;;;29.23;14.83;;;;;2.90;93764.00;;;;7388416;19;20170;-76
2023/03/05 12:15:50;;;;;;;24.53;14.40;;;;;2.90;93754.00;;;;7387824;19;20121;-78
2023/03/05 12:18:42;;;;;;;28.53;14.30;;;;;2.10;93747.00;;;;7387186;19;20145;-78
2023/03/05 12:21:36;;;;;;;26.70;13.67;;;;;2.10;93746.00;;;;7390127;19;20503;-77
2023/03/05 12:24:23;;;;;;;29.50;14.67;;;;;2.40;93741.00;;;;7391502;19;20139;-75
2023/03/05 12:27:05;;;;;;;23.97;14.30;;;;;2.50;93734.00;;;;7395427;19;20208;-77
2023/03/05 12:29:45;;;;;;;28.20;15.37;;;;;2.30;93723.00;;;;7397781;19;20159;-77
2023/03/05 12:32:27;;;;;;;25.97;14.83;;;;;2.00;93724.00;;;;7395963;19;20136;-79
2023/03/05 12:35:07;;;;;;;33.00;15.27;;;;;2.50;93721.00;;;;7397546;19;20133;-76
2023/03/05 12:37:44;;;;;;;28.53;15.40;;;;;2.80;93724.00;;;;7398972;19;20140;-77
2023/03/05 12:40:28;;;;;;;29.57;14.87;;;;;2.90;93722.00;;;;7401142;19;20117;-80
2023/03/05 12:43:22;;;;;;;28.73;14.83;;;;;2.90;93716.00;;;;7402419;19;20128;-75
2023/03/05 12:46:23;;;;;;;29.63;15.70;;;;;3.20;93710.00;;;;7396754;19;20137;-73
2023/03/05 12:48:57;;;;;;;25.67;14.37;;;;;3.10;93699.00;;;;7400459;19;20167;-73
2023/03/05 12:51:34;;;;;;;30.00;16.33;;;;;3.30;93702.00;;;;7399938;19;20568;-75
2023/03/05 12:54:23;;;;;;;29.57;14.47;;;;;3.30;93691.00;;;;7399320;19;20124;-73
2023/03/05 12:57:01;;;;;;;30.03;14.57;;;;;2.90;93688.00;;;;7399728;19;20133;-75